sensor_id;sensor_type;location;lat;lon;timestamp;P1;durP1;ratioP1;P2;durP2;ratioP2
59040;SDS011;44825;53.200;6.448;2023-07-29T00:02:11;8.30;;;5.75;;
59040;SDS011;44825;53.200;6.448;2023-07-29T00:04:37;7.90;;;5.90;;
59040;SDS011;44825;53.200;6.448;2023-07-29T00:07:03;8.25;;;6.00;;
59040;SDS011;44825;53.200;6.448;2023-07-29T00:09:29;9.60;;;5.93;;
59040;SDS011;44825;53.200;6.448;2023-07-29T00:11:55;8.32;;;6.28;;
59040;SDS011;44825;53.200;6.448;2023-07-29T00:14:21;10.10;;;6.18;;
59040;SDS011;44825;53.200;6.448;2023-07-29T00:16:47;9.30;;;5.78;;
59040;SDS011;44825;53.200;6.448;2023-07-29T00:19:13;9.57;;;6.05;;
59040;SDS011;44825;53.200;6.448;2023-07-29T00:21:39;9.00;;;6.15;;
59040;SDS011;44825;53.200;6.448;2023-07-29T00:24:06;9.20;;;5.72;;
59040;SDS011;44825;53.200;6.448;2023-07-29T00:26:32;8.73;;;5.97;;
59040;SDS011;44825;53.200;6.448;2023-07-29T00:28:58;11.18;;;5.75;;
59040;SDS011;44825;53.200;6.448;2023-07-29T00:31:24;9.02;;;6.18;;
59040;SDS011;44825;53.200;6.448;2023-07-29T00:33:50;8.85;;;6.43;;
59040;SDS011;44825;53.200;6.448;2023-07-29T00:36:17;9.82;;;6.30;;
59040;SDS011;44825;53.200;6.448;2023-07-29T00:38:44;9.73;;;6.07;;
59040;SDS011;44825;53.200;6.448;2023-07-29T00:41:14;7.93;;;5.72;;
59040;SDS011;44825;53.200;6.448;2023-07-29T00:43:41;9.57;;;6.65;;
59040;SDS011;44825;53.200;6.448;2023-07-29T00:46:07;9.65;;;6.18;;
59040;SDS011;44825;53.200;6.448;2023-07-29T00:48:34;8.95;;;6.28;;
59040;SDS011;44825;53.200;6.448;2023-07-29T00:51:00;11.30;;;6.30;;
59040;SDS011;44825;53.200;6.448;2023-07-29T00:53:26;9.07;;;5.80;;
59040;SDS011;44825;53.200;6.448;2023-07-29T00:55:52;14.68;;;5.95;;
59040;SDS011;44825;53.200;6.448;2023-07-29T00:58:19;8.27;;;5.78;;
59040;SDS011;44825;53.200;6.448;2023-07-29T01:00:45;9.55;;;6.15;;
59040;SDS011;44825;53.200;6.448;2023-07-29T01:03:11;9.93;;;6.65;;
59040;SDS011;44825;53.200;6.448;2023-07-29T01:05:40;8.90;;;5.53;;
59040;SDS011;44825;53.200;6.448;2023-07-29T01:08:14;10.55;;;6.43;;
59040;SDS011;44825;53.200;6.448;2023-07-29T01:10:46;11.40;;;6.63;;
59040;SDS011;44825;53.200;6.448;2023-07-29T01:13:19;8.40;;;6.43;;
59040;SDS011;44825;53.200;6.448;2023-07-29T01:15:54;9.85;;;7.07;;
59040;SDS011;44825;53.200;6.448;2023-07-29T01:18:23;10.27;;;6.60;;
59040;SDS011;44825;53.200;6.448;2023-07-29T01:20:49;9.70;;;7.25;;
59040;SDS011;44825;53.200;6.448;2023-07-29T01:23:23;8.80;;;7.00;;
59040;SDS011;44825;53.200;6.448;2023-07-29T01:25:49;9.60;;;7.13;;
59040;SDS011;44825;53.200;6.448;2023-07-29T01:28:15;9.32;;;7.43;;
59040;SDS011;44825;53.200;6.448;2023-07-29T01:30:42;9.45;;;6.75;;
59040;SDS011;44825;53.200;6.448;2023-07-29T01:33:11;9.98;;;6.80;;
59040;SDS011;44825;53.200;6.448;2023-07-29T01:35:43;11.55;;;7.18;;
59040;SDS011;44825;53.200;6.448;2023-07-29T01:38:17;14.02;;;7.75;;
59040;SDS011;44825;53.200;6.448;2023-07-29T01:43:10;11.98;;;7.10;;
59040;SDS011;44825;53.200;6.448;2023-07-29T01:45:36;10.73;;;7.03;;
59040;SDS011;44825;53.200;6.448;2023-07-29T01:48:06;8.73;;;6.63;;
59040;SDS011;44825;53.200;6.448;2023-07-29T01:50:32;11.93;;;7.78;;
59040;SDS011;44825;53.200;6.448;2023-07-29T01:52:58;10.10;;;7.82;;
59040;SDS011;44825;53.200;6.448;2023-07-29T01:55:25;10.93;;;7.45;;
59040;SDS011;44825;53.200;6.448;2023-07-29T01:57:51;9.95;;;7.00;;
59040;SDS011;44825;53.200;6.448;2023-07-29T02:00:20;12.20;;;7.72;;
59040;SDS011;44825;53.200;6.448;2023-07-29T02:02:46;9.80;;;6.95;;
59040;SDS011;44825;53.200;6.448;2023-07-29T02:05:12;9.20;;;7.07;;
59040;SDS011;44825;53.200;6.448;2023-07-29T02:07:38;9.23;;;7.43;;
59040;SDS011;44825;53.200;6.448;2023-07-29T02:10:05;11.30;;;7.63;;
59040;SDS011;44825;53.200;6.448;2023-07-29T02:12:31;9.70;;;7.15;;
59040;SDS011;44825;53.200;6.448;2023-07-29T02:14:57;11.40;;;8.05;;
59040;SDS011;44825;53.200;6.448;2023-07-29T02:17:23;9.68;;;7.53;;
59040;SDS011;44825;53.200;6.448;2023-07-29T02:19:49;11.18;;;7.85;;
59040;SDS011;44825;53.200;6.448;2023-07-29T02:22:16;9.75;;;7.63;;
59040;SDS011;44825;53.200;6.448;2023-07-29T02:24:45;13.30;;;7.55;;
59040;SDS011;44825;53.200;6.448;2023-07-29T02:27:12;11.38;;;8.07;;
59040;SDS011;44825;53.200;6.448;2023-07-29T02:29:38;12.20;;;7.60;;
59040;SDS011;44825;53.200;6.448;2023-07-29T02:32:04;11.60;;;8.13;;
59040;SDS011;44825;53.200;6.448;2023-07-29T02:34:30;11.73;;;8.02;;
59040;SDS011;44825;53.200;6.448;2023-07-29T02:36:56;10.20;;;7.68;;
59040;SDS011;44825;53.200;6.448;2023-07-29T02:39:22;10.85;;;7.65;;
59040;SDS011;44825;53.200;6.448;2023-07-29T02:41:49;12.15;;;7.95;;
59040;SDS011;44825;53.200;6.448;2023-07-29T02:44:15;10.77;;;7.07;;
59040;SDS011;44825;53.200;6.448;2023-07-29T02:46:41;11.35;;;7.75;;
59040;SDS011;44825;53.200;6.448;2023-07-29T02:49:07;13.15;;;7.78;;
59040;SDS011;44825;53.200;6.448;2023-07-29T02:51:33;9.27;;;6.97;;
59040;SDS011;44825;53.200;6.448;2023-07-29T02:53:59;10.77;;;6.88;;
59040;SDS011;44825;53.200;6.448;2023-07-29T02:56:25;12.10;;;7.25;;
59040;SDS011;44825;53.200;6.448;2023-07-29T02:58:51;11.15;;;7.75;;
59040;SDS011;44825;53.200;6.448;2023-07-29T03:01:18;11.07;;;7.43;;
59040;SDS011;44825;53.200;6.448;2023-07-29T03:03:44;9.48;;;7.22;;
59040;SDS011;44825;53.200;6.448;2023-07-29T03:06:10;9.13;;;6.70;;
59040;SDS011;44825;53.200;6.448;2023-07-29T03:08:37;10.77;;;7.57;;
59040;SDS011;44825;53.200;6.448;2023-07-29T03:11:06;11.15;;;7.10;;
59040;SDS011;44825;53.200;6.448;2023-07-29T03:13:33;9.32;;;6.47;;
59040;SDS011;44825;53.200;6.448;2023-07-29T03:16:06;10.63;;;7.20;;
59040;SDS011;44825;53.200;6.448;2023-07-29T03:18:32;12.73;;;7.00;;
59040;SDS011;44825;53.200;6.448;2023-07-29T03:20:58;9.32;;;6.88;;
59040;SDS011;44825;53.200;6.448;2023-07-29T03:23:25;10.15;;;7.25;;
59040;SDS011;44825;53.200;6.448;2023-07-29T03:25:51;10.13;;;7.40;;
59040;SDS011;44825;53.200;6.448;2023-07-29T03:28:21;14.02;;;7.78;;
59040;SDS011;44825;53.200;6.448;2023-07-29T03:30:47;12.65;;;7.38;;
59040;SDS011;44825;53.200;6.448;2023-07-29T03:33:13;8.63;;;6.40;;
59040;SDS011;44825;53.200;6.448;2023-07-29T03:35:39;9.90;;;6.72;;
59040;SDS011;44825;53.200;6.448;2023-07-29T03:38:09;9.57;;;6.60;;
59040;SDS011;44825;53.200;6.448;2023-07-29T03:40:36;9.75;;;6.20;;
59040;SDS011;44825;53.200;6.448;2023-07-29T03:43:02;10.60;;;6.63;;
59040;SDS011;44825;53.200;6.448;2023-07-29T03:45:28;11.63;;;7.05;;
59040;SDS011;44825;53.200;6.448;2023-07-29T03:47:54;12.07;;;7.15;;
59040;SDS011;44825;53.200;6.448;2023-07-29T03:50:20;8.95;;;6.32;;
59040;SDS011;44825;53.200;6.448;2023-07-29T03:52:46;10.52;;;7.07;;
59040;SDS011;44825;53.200;6.448;2023-07-29T03:55:12;10.45;;;6.68;;
59040;SDS011;44825;53.200;6.448;2023-07-29T03:57:38;10.20;;;7.25;;
59040;SDS011;44825;53.200;6.448;2023-07-29T04:00:05;11.93;;;6.68;;
59040;SDS011;44825;53.200;6.448;2023-07-29T04:02:31;10.93;;;6.85;;
59040;SDS011;44825;53.200;6.448;2023-07-29T04:04:57;11.93;;;6.28;;
59040;SDS011;44825;53.200;6.448;2023-07-29T04:07:23;10.57;;;6.88;;
59040;SDS011;44825;53.200;6.448;2023-07-29T04:09:49;10.68;;;5.90;;
59040;SDS011;44825;53.200;6.448;2023-07-29T04:12:15;10.63;;;6.90;;
59040;SDS011;44825;53.200;6.448;2023-07-29T04:14:41;10.77;;;6.93;;
59040;SDS011;44825;53.200;6.448;2023-07-29T04:17:10;9.98;;;6.45;;
59040;SDS011;44825;53.200;6.448;2023-07-29T04:19:36;12.30;;;6.25;;
59040;SDS011;44825;53.200;6.448;2023-07-29T04:22:03;8.90;;;5.68;;
59040;SDS011;44825;53.200;6.448;2023-07-29T04:24:29;8.68;;;5.63;;
59040;SDS011;44825;53.200;6.448;2023-07-29T04:26:55;8.75;;;6.00;;
59040;SDS011;44825;53.200;6.448;2023-07-29T04:29:21;8.95;;;6.05;;
59040;SDS011;44825;53.200;6.448;2023-07-29T04:31:48;7.35;;;5.05;;
59040;SDS011;44825;53.200;6.448;2023-07-29T04:34:14;7.38;;;5.18;;
59040;SDS011;44825;53.200;6.448;2023-07-29T04:36:40;9.43;;;5.32;;
59040;SDS011;44825;53.200;6.448;2023-07-29T04:39:06;8.63;;;5.72;;
59040;SDS011;44825;53.200;6.448;2023-07-29T04:41:32;8.50;;;5.13;;
59040;SDS011;44825;53.200;6.448;2023-07-29T04:43:58;9.32;;;5.03;;
59040;SDS011;44825;53.200;6.448;2023-07-29T04:46:25;8.48;;;5.15;;
59040;SDS011;44825;53.200;6.448;2023-07-29T04:48:51;8.05;;;4.50;;
59040;SDS011;44825;53.200;6.448;2023-07-29T04:51:17;6.93;;;4.22;;
59040;SDS011;44825;53.200;6.448;2023-07-29T04:53:43;7.80;;;4.68;;
59040;SDS011;44825;53.200;6.448;2023-07-29T04:56:09;7.00;;;4.68;;
59040;SDS011;44825;53.200;6.448;2023-07-29T04:58:35;8.75;;;3.88;;
59040;SDS011;44825;53.200;6.448;2023-07-29T05:01:02;12.00;;;5.00;;
59040;SDS011;44825;53.200;6.448;2023-07-29T05:03:28;7.57;;;4.30;;
59040;SDS011;44825;53.200;6.448;2023-07-29T05:05:54;8.65;;;4.38;;
59040;SDS011;44825;53.200;6.448;2023-07-29T05:08:21;10.02;;;4.50;;
59040;SDS011;44825;53.200;6.448;2023-07-29T05:10:51;8.90;;;4.05;;
59040;SDS011;44825;53.200;6.448;2023-07-29T05:13:17;8.27;;;4.07;;
59040;SDS011;44825;53.200;6.448;2023-07-29T05:15:44;8.30;;;4.28;;
59040;SDS011;44825;53.200;6.448;2023-07-29T05:18:10;8.43;;;4.63;;
59040;SDS011;44825;53.200;6.448;2023-07-29T05:20:36;9.77;;;4.43;;
59040;SDS011;44825;53.200;6.448;2023-07-29T05:23:02;8.25;;;4.20;;
59040;SDS011;44825;53.200;6.448;2023-07-29T05:25:29;6.38;;;4.07;;
59040;SDS011;44825;53.200;6.448;2023-07-29T05:27:55;8.07;;;4.10;;
59040;SDS011;44825;53.200;6.448;2023-07-29T05:30:22;7.32;;;3.80;;
59040;SDS011;44825;53.200;6.448;2023-07-29T05:32:48;7.85;;;4.07;;
59040;SDS011;44825;53.200;6.448;2023-07-29T05:35:14;10.00;;;3.65;;
59040;SDS011;44825;53.200;6.448;2023-07-29T05:37:40;8.98;;;3.78;;
59040;SDS011;44825;53.200;6.448;2023-07-29T05:40:07;11.15;;;3.83;;
59040;SDS011;44825;53.200;6.448;2023-07-29T05:42:36;9.57;;;3.30;;
59040;SDS011;44825;53.200;6.448;2023-07-29T05:45:02;7.40;;;3.70;;
59040;SDS011;44825;53.200;6.448;2023-07-29T05:47:28;6.72;;;3.67;;
59040;SDS011;44825;53.200;6.448;2023-07-29T05:49:54;6.30;;;3.20;;
59040;SDS011;44825;53.200;6.448;2023-07-29T05:52:20;6.90;;;3.53;;
59040;SDS011;44825;53.200;6.448;2023-07-29T05:54:46;6.05;;;3.33;;
59040;SDS011;44825;53.200;6.448;2023-07-29T05:57:12;6.72;;;3.80;;
59040;SDS011;44825;53.200;6.448;2023-07-29T05:59:38;6.38;;;3.83;;
59040;SDS011;44825;53.200;6.448;2023-07-29T06:02:04;7.43;;;3.65;;
59040;SDS011;44825;53.200;6.448;2023-07-29T06:04:30;7.65;;;3.45;;
59040;SDS011;44825;53.200;6.448;2023-07-29T06:06:56;6.57;;;3.13;;
59040;SDS011;44825;53.200;6.448;2023-07-29T06:09:22;7.78;;;3.22;;
59040;SDS011;44825;53.200;6.448;2023-07-29T06:11:50;8.23;;;3.40;;
59040;SDS011;44825;53.200;6.448;2023-07-29T06:14:16;8.38;;;4.07;;
59040;SDS011;44825;53.200;6.448;2023-07-29T06:16:42;8.85;;;3.65;;
59040;SDS011;44825;53.200;6.448;2023-07-29T06:19:08;9.40;;;3.65;;
59040;SDS011;44825;53.200;6.448;2023-07-29T06:21:34;12.07;;;3.80;;
59040;SDS011;44825;53.200;6.448;2023-07-29T06:24:01;6.82;;;3.33;;
59040;SDS011;44825;53.200;6.448;2023-07-29T06:26:28;6.75;;;3.55;;
59040;SDS011;44825;53.200;6.448;2023-07-29T06:28:54;10.32;;;3.53;;
59040;SDS011;44825;53.200;6.448;2023-07-29T06:31:20;8.55;;;3.60;;
59040;SDS011;44825;53.200;6.448;2023-07-29T06:33:46;6.47;;;2.95;;
59040;SDS011;44825;53.200;6.448;2023-07-29T06:36:12;8.75;;;3.10;;
59040;SDS011;44825;53.200;6.448;2023-07-29T06:38:38;9.13;;;3.08;;
59040;SDS011;44825;53.200;6.448;2023-07-29T06:41:06;10.38;;;3.80;;
59040;SDS011;44825;53.200;6.448;2023-07-29T06:43:32;10.48;;;3.63;;
59040;SDS011;44825;53.200;6.448;2023-07-29T06:45:58;7.95;;;3.53;;
59040;SDS011;44825;53.200;6.448;2023-07-29T06:48:24;7.72;;;3.47;;
59040;SDS011;44825;53.200;6.448;2023-07-29T06:50:50;7.15;;;3.25;;
59040;SDS011;44825;53.200;6.448;2023-07-29T06:53:17;6.53;;;3.30;;
59040;SDS011;44825;53.200;6.448;2023-07-29T06:55:43;6.20;;;3.08;;
59040;SDS011;44825;53.200;6.448;2023-07-29T06:58:10;9.43;;;3.67;;
59040;SDS011;44825;53.200;6.448;2023-07-29T07:00:36;7.35;;;3.13;;
59040;SDS011;44825;53.200;6.448;2023-07-29T07:03:02;8.15;;;3.35;;
59040;SDS011;44825;53.200;6.448;2023-07-29T07:05:28;9.75;;;3.63;;
59040;SDS011;44825;53.200;6.448;2023-07-29T07:07:54;10.48;;;3.55;;
59040;SDS011;44825;53.200;6.448;2023-07-29T07:10:20;9.95;;;3.45;;
59040;SDS011;44825;53.200;6.448;2023-07-29T07:12:46;12.10;;;3.03;;
59040;SDS011;44825;53.200;6.448;2023-07-29T07:15:12;7.72;;;3.25;;
59040;SDS011;44825;53.200;6.448;2023-07-29T07:17:38;7.55;;;3.28;;
59040;SDS011;44825;53.200;6.448;2023-07-29T07:20:04;9.65;;;3.10;;
59040;SDS011;44825;53.200;6.448;2023-07-29T07:22:31;11.80;;;4.30;;
59040;SDS011;44825;53.200;6.448;2023-07-29T07:24:57;7.70;;;3.58;;
59040;SDS011;44825;53.200;6.448;2023-07-29T07:27:23;9.43;;;3.70;;
59040;SDS011;44825;53.200;6.448;2023-07-29T07:29:49;6.40;;;2.83;;
59040;SDS011;44825;53.200;6.448;2023-07-29T07:32:15;8.70;;;3.40;;
59040;SDS011;44825;53.200;6.448;2023-07-29T07:34:41;8.95;;;3.13;;
59040;SDS011;44825;53.200;6.448;2023-07-29T07:37:07;9.15;;;3.38;;
59040;SDS011;44825;53.200;6.448;2023-07-29T07:39:33;7.32;;;3.05;;
59040;SDS011;44825;53.200;6.448;2023-07-29T07:41:59;9.52;;;3.20;;
59040;SDS011;44825;53.200;6.448;2023-07-29T07:44:25;8.60;;;3.00;;
59040;SDS011;44825;53.200;6.448;2023-07-29T07:46:52;11.63;;;3.75;;
59040;SDS011;44825;53.200;6.448;2023-07-29T07:49:18;10.93;;;3.60;;
59040;SDS011;44825;53.200;6.448;2023-07-29T07:51:45;6.63;;;3.03;;
59040;SDS011;44825;53.200;6.448;2023-07-29T07:54:11;11.07;;;3.15;;
59040;SDS011;44825;53.200;6.448;2023-07-29T07:56:37;7.72;;;3.28;;
59040;SDS011;44825;53.200;6.448;2023-07-29T07:59:03;10.20;;;3.00;;
59040;SDS011;44825;53.200;6.448;2023-07-29T08:01:34;9.23;;;2.95;;
59040;SDS011;44825;53.200;6.448;2023-07-29T08:04:00;10.75;;;2.97;;
59040;SDS011;44825;53.200;6.448;2023-07-29T08:06:27;7.28;;;3.20;;
59040;SDS011;44825;53.200;6.448;2023-07-29T08:08:53;6.35;;;2.50;;
59040;SDS011;44825;53.200;6.448;2023-07-29T08:11:19;9.45;;;2.90;;
59040;SDS011;44825;53.200;6.448;2023-07-29T08:13:45;8.32;;;2.90;;
59040;SDS011;44825;53.200;6.448;2023-07-29T08:16:11;11.02;;;3.38;;
59040;SDS011;44825;53.200;6.448;2023-07-29T08:18:38;7.25;;;3.30;;
59040;SDS011;44825;53.200;6.448;2023-07-29T08:21:04;8.50;;;3.05;;
59040;SDS011;44825;53.200;6.448;2023-07-29T08:23:30;6.40;;;2.92;;
59040;SDS011;44825;53.200;6.448;2023-07-29T08:25:57;8.05;;;3.17;;
59040;SDS011;44825;53.200;6.448;2023-07-29T08:28:34;9.60;;;2.60;;
59040;SDS011;44825;53.200;6.448;2023-07-29T08:31:00;6.82;;;2.38;;
59040;SDS011;44825;53.200;6.448;2023-07-29T08:33:27;7.40;;;2.38;;
59040;SDS011;44825;53.200;6.448;2023-07-29T08:35:53;8.25;;;2.55;;
59040;SDS011;44825;53.200;6.448;2023-07-29T08:38:19;7.88;;;2.60;;
59040;SDS011;44825;53.200;6.448;2023-07-29T08:41:32;8.73;;;2.40;;
59040;SDS011;44825;53.200;6.448;2023-07-29T08:43:32;7.88;;;2.50;;
59040;SDS011;44825;53.200;6.448;2023-07-29T08:45:59;6.43;;;1.98;;
59040;SDS011;44825;53.200;6.448;2023-07-29T08:48:32;6.68;;;2.15;;
59040;SDS011;44825;53.200;6.448;2023-07-29T08:50:59;6.28;;;2.30;;
59040;SDS011;44825;53.200;6.448;2023-07-29T08:53:25;6.35;;;2.10;;
59040;SDS011;44825;53.200;6.448;2023-07-29T08:55:52;5.65;;;2.47;;
59040;SDS011;44825;53.200;6.448;2023-07-29T08:58:20;8.25;;;2.00;;
59040;SDS011;44825;53.200;6.448;2023-07-29T09:00:47;7.78;;;2.42;;
59040;SDS011;44825;53.200;6.448;2023-07-29T09:03:13;6.97;;;1.70;;
59040;SDS011;44825;53.200;6.448;2023-07-29T09:05:39;6.50;;;2.00;;
59040;SDS011;44825;53.200;6.448;2023-07-29T09:08:05;5.13;;;1.85;;
59040;SDS011;44825;53.200;6.448;2023-07-29T09:10:36;5.68;;;1.90;;
59040;SDS011;44825;53.200;6.448;2023-07-29T09:13:02;7.45;;;2.15;;
59040;SDS011;44825;53.200;6.448;2023-07-29T09:15:29;4.75;;;2.03;;
59040;SDS011;44825;53.200;6.448;2023-07-29T09:17:56;6.97;;;2.15;;
59040;SDS011;44825;53.200;6.448;2023-07-29T09:20:25;4.38;;;1.63;;
59040;SDS011;44825;53.200;6.448;2023-07-29T09:22:52;5.40;;;1.98;;
59040;SDS011;44825;53.200;6.448;2023-07-29T09:25:25;6.60;;;2.05;;
59040;SDS011;44825;53.200;6.448;2023-07-29T09:27:52;5.72;;;1.73;;
59040;SDS011;44825;53.200;6.448;2023-07-29T09:30:18;6.03;;;2.03;;
59040;SDS011;44825;53.200;6.448;2023-07-29T09:32:44;7.30;;;1.77;;
59040;SDS011;44825;53.200;6.448;2023-07-29T09:35:11;6.32;;;1.35;;
59040;SDS011;44825;53.200;6.448;2023-07-29T09:37:37;4.38;;;1.80;;
59040;SDS011;44825;53.200;6.448;2023-07-29T09:40:04;7.47;;;1.80;;
59040;SDS011;44825;53.200;6.448;2023-07-29T09:42:30;3.65;;;1.20;;
59040;SDS011;44825;53.200;6.448;2023-07-29T09:44:56;6.43;;;1.48;;
59040;SDS011;44825;53.200;6.448;2023-07-29T09:47:23;5.22;;;1.38;;
59040;SDS011;44825;53.200;6.448;2023-07-29T09:49:50;4.82;;;1.20;;
59040;SDS011;44825;53.200;6.448;2023-07-29T09:52:19;6.10;;;1.80;;
59040;SDS011;44825;53.200;6.448;2023-07-29T09:54:46;5.55;;;1.35;;
59040;SDS011;44825;53.200;6.448;2023-07-29T09:57:16;7.90;;;1.50;;
59040;SDS011;44825;53.200;6.448;2023-07-29T09:59:42;7.88;;;1.98;;
59040;SDS011;44825;53.200;6.448;2023-07-29T10:02:09;5.43;;;1.40;;
59040;SDS011;44825;53.200;6.448;2023-07-29T10:04:39;5.28;;;1.45;;
59040;SDS011;44825;53.200;6.448;2023-07-29T10:07:09;5.25;;;1.75;;
59040;SDS011;44825;53.200;6.448;2023-07-29T10:09:36;4.65;;;1.50;;
59040;SDS011;44825;53.200;6.448;2023-07-29T10:12:04;6.03;;;1.25;;
59040;SDS011;44825;53.200;6.448;2023-07-29T10:14:31;7.30;;;1.70;;
59040;SDS011;44825;53.200;6.448;2023-07-29T10:16:58;7.20;;;1.60;;
59040;SDS011;44825;53.200;6.448;2023-07-29T10:19:24;4.78;;;1.55;;
59040;SDS011;44825;53.200;6.448;2023-07-29T10:21:51;4.45;;;1.40;;
59040;SDS011;44825;53.200;6.448;2023-07-29T10:24:22;4.65;;;1.58;;
59040;SDS011;44825;53.200;6.448;2023-07-29T10:26:53;4.82;;;1.60;;
59040;SDS011;44825;53.200;6.448;2023-07-29T10:29:20;7.28;;;1.52;;
59040;SDS011;44825;53.200;6.448;2023-07-29T10:31:46;4.78;;;1.27;;
59040;SDS011;44825;53.200;6.448;2023-07-29T10:34:13;5.75;;;1.58;;
59040;SDS011;44825;53.200;6.448;2023-07-29T10:36:40;6.07;;;1.42;;
59040;SDS011;44825;53.200;6.448;2023-07-29T10:39:06;5.80;;;1.48;;
59040;SDS011;44825;53.200;6.448;2023-07-29T10:44:45;7.20;;;1.42;;
59040;SDS011;44825;53.200;6.448;2023-07-29T10:47:13;4.75;;;1.42;;
59040;SDS011;44825;53.200;6.448;2023-07-29T10:49:40;4.97;;;1.60;;
59040;SDS011;44825;53.200;6.448;2023-07-29T10:52:06;6.53;;;1.58;;
59040;SDS011;44825;53.200;6.448;2023-07-29T10:54:45;5.15;;;1.60;;
59040;SDS011;44825;53.200;6.448;2023-07-29T10:57:14;3.53;;;1.13;;
59040;SDS011;44825;53.200;6.448;2023-07-29T10:59:41;4.68;;;1.63;;
59040;SDS011;44825;53.200;6.448;2023-07-29T11:02:12;3.72;;;1.40;;
59040;SDS011;44825;53.200;6.448;2023-07-29T11:04:50;6.88;;;1.70;;
59040;SDS011;44825;53.200;6.448;2023-07-29T11:07:20;10.60;;;2.70;;
59040;SDS011;44825;53.200;6.448;2023-07-29T11:09:52;8.43;;;2.25;;
59040;SDS011;44825;53.200;6.448;2023-07-29T11:15:07;5.30;;;1.17;;
59040;SDS011;44825;53.200;6.448;2023-07-29T11:17:44;3.72;;;1.35;;
59040;SDS011;44825;53.200;6.448;2023-07-29T11:20:10;9.52;;;1.60;;
59040;SDS011;44825;53.200;6.448;2023-07-29T11:22:37;5.88;;;1.70;;
59040;SDS011;44825;53.200;6.448;2023-07-29T11:25:04;10.10;;;1.98;;
59040;SDS011;44825;53.200;6.448;2023-07-29T11:27:30;4.90;;;2.08;;
59040;SDS011;44825;53.200;6.448;2023-07-29T11:29:57;6.55;;;1.58;;
59040;SDS011;44825;53.200;6.448;2023-07-29T11:32:23;4.80;;;1.55;;
59040;SDS011;44825;53.200;6.448;2023-07-29T11:34:50;4.50;;;1.67;;
59040;SDS011;44825;53.200;6.448;2023-07-29T11:37:16;5.03;;;1.77;;
59040;SDS011;44825;53.200;6.448;2023-07-29T11:39:43;5.13;;;2.03;;
59040;SDS011;44825;53.200;6.448;2023-07-29T11:42:12;4.97;;;1.70;;
59040;SDS011;44825;53.200;6.448;2023-07-29T11:44:38;4.97;;;2.40;;
59040;SDS011;44825;53.200;6.448;2023-07-29T11:47:08;9.65;;;2.30;;
59040;SDS011;44825;53.200;6.448;2023-07-29T11:49:35;7.18;;;1.80;;
59040;SDS011;44825;53.200;6.448;2023-07-29T11:52:05;7.65;;;2.10;;
59040;SDS011;44825;53.200;6.448;2023-07-29T11:54:31;8.25;;;2.67;;
59040;SDS011;44825;53.200;6.448;2023-07-29T11:56:57;6.07;;;2.55;;
59040;SDS011;44825;53.200;6.448;2023-07-29T11:59:23;6.43;;;2.50;;
59040;SDS011;44825;53.200;6.448;2023-07-29T12:01:50;7.60;;;2.50;;
59040;SDS011;44825;53.200;6.448;2023-07-29T12:04:16;6.18;;;2.50;;
59040;SDS011;44825;53.200;6.448;2023-07-29T12:06:42;5.28;;;1.70;;
59040;SDS011;44825;53.200;6.448;2023-07-29T12:09:08;5.53;;;2.10;;
59040;SDS011;44825;53.200;6.448;2023-07-29T12:11:34;5.90;;;2.15;;
59040;SDS011;44825;53.200;6.448;2023-07-29T12:14:00;7.03;;;2.20;;
59040;SDS011;44825;53.200;6.448;2023-07-29T12:16:27;8.55;;;2.58;;
59040;SDS011;44825;53.200;6.448;2023-07-29T12:19:00;7.13;;;1.77;;
59040;SDS011;44825;53.200;6.448;2023-07-29T12:21:26;3.38;;;1.30;;
59040;SDS011;44825;53.200;6.448;2023-07-29T12:23:52;5.18;;;1.83;;
59040;SDS011;44825;53.200;6.448;2023-07-29T12:26:18;5.78;;;1.80;;
59040;SDS011;44825;53.200;6.448;2023-07-29T12:28:47;4.55;;;1.80;;
59040;SDS011;44825;53.200;6.448;2023-07-29T12:31:16;5.22;;;2.03;;
59040;SDS011;44825;53.200;6.448;2023-07-29T12:33:42;6.50;;;1.90;;
59040;SDS011;44825;53.200;6.448;2023-07-29T12:36:08;6.85;;;1.88;;
59040;SDS011;44825;53.200;6.448;2023-07-29T12:38:35;4.25;;;1.65;;
59040;SDS011;44825;53.200;6.448;2023-07-29T12:41:01;5.93;;;1.75;;
59040;SDS011;44825;53.200;6.448;2023-07-29T12:43:27;4.20;;;1.75;;
59040;SDS011;44825;53.200;6.448;2023-07-29T12:45:54;6.30;;;1.70;;
59040;SDS011;44825;53.200;6.448;2023-07-29T12:48:20;5.72;;;1.90;;
59040;SDS011;44825;53.200;6.448;2023-07-29T12:50:46;4.57;;;1.98;;
59040;SDS011;44825;53.200;6.448;2023-07-29T12:53:12;5.15;;;1.70;;
59040;SDS011;44825;53.200;6.448;2023-07-29T12:55:38;6.80;;;1.77;;
59040;SDS011;44825;53.200;6.448;2023-07-29T12:58:04;6.63;;;1.90;;
59040;SDS011;44825;53.200;6.448;2023-07-29T13:00:31;6.43;;;1.77;;
59040;SDS011;44825;53.200;6.448;2023-07-29T13:02:57;2.85;;;1.40;;
59040;SDS011;44825;53.200;6.448;2023-07-29T13:05:23;6.00;;;2.20;;
59040;SDS011;44825;53.200;6.448;2023-07-29T13:07:49;5.93;;;1.48;;
59040;SDS011;44825;53.200;6.448;2023-07-29T13:10:15;6.07;;;1.90;;
59040;SDS011;44825;53.200;6.448;2023-07-29T13:12:42;3.90;;;1.58;;
59040;SDS011;44825;53.200;6.448;2023-07-29T13:15:08;5.82;;;1.75;;
59040;SDS011;44825;53.200;6.448;2023-07-29T13:17:34;5.10;;;1.73;;
59040;SDS011;44825;53.200;6.448;2023-07-29T13:20:00;6.15;;;1.50;;
59040;SDS011;44825;53.200;6.448;2023-07-29T13:22:26;6.82;;;1.92;;
59040;SDS011;44825;53.200;6.448;2023-07-29T13:24:52;4.65;;;1.63;;
59040;SDS011;44825;53.200;6.448;2023-07-29T13:27:18;5.55;;;1.60;;
59040;SDS011;44825;53.200;6.448;2023-07-29T13:29:44;6.68;;;1.58;;
59040;SDS011;44825;53.200;6.448;2023-07-29T13:32:11;4.15;;;1.40;;
59040;SDS011;44825;53.200;6.448;2023-07-29T13:34:38;7.45;;;1.67;;
59040;SDS011;44825;53.200;6.448;2023-07-29T13:37:05;5.88;;;2.20;;
59040;SDS011;44825;53.200;6.448;2023-07-29T13:39:31;6.18;;;1.60;;
59040;SDS011;44825;53.200;6.448;2023-07-29T13:41:57;4.97;;;1.40;;
59040;SDS011;44825;53.200;6.448;2023-07-29T13:44:23;5.38;;;1.77;;
59040;SDS011;44825;53.200;6.448;2023-07-29T13:46:49;4.28;;;1.45;;
59040;SDS011;44825;53.200;6.448;2023-07-29T13:49:15;4.93;;;1.65;;
59040;SDS011;44825;53.200;6.448;2023-07-29T13:51:41;9.40;;;2.03;;
59040;SDS011;44825;53.200;6.448;2023-07-29T13:54:07;5.85;;;1.98;;
59040;SDS011;44825;53.200;6.448;2023-07-29T13:56:33;3.85;;;1.60;;
59040;SDS011;44825;53.200;6.448;2023-07-29T13:59:00;6.32;;;2.17;;
59040;SDS011;44825;53.200;6.448;2023-07-29T14:01:28;5.03;;;1.90;;
59040;SDS011;44825;53.200;6.448;2023-07-29T14:03:54;5.78;;;1.80;;
59040;SDS011;44825;53.200;6.448;2023-07-29T14:06:20;6.80;;;1.90;;
59040;SDS011;44825;53.200;6.448;2023-07-29T14:08:46;6.05;;;1.75;;
59040;SDS011;44825;53.200;6.448;2023-07-29T14:11:15;6.07;;;2.17;;
59040;SDS011;44825;53.200;6.448;2023-07-29T14:13:41;6.07;;;2.03;;
59040;SDS011;44825;53.200;6.448;2023-07-29T14:16:07;9.82;;;2.03;;
59040;SDS011;44825;53.200;6.448;2023-07-29T14:18:33;4.90;;;2.10;;
59040;SDS011;44825;53.200;6.448;2023-07-29T14:20:59;3.78;;;1.63;;
59040;SDS011;44825;53.200;6.448;2023-07-29T14:23:25;5.72;;;2.28;;
59040;SDS011;44825;53.200;6.448;2023-07-29T14:25:52;5.50;;;1.90;;
59040;SDS011;44825;53.200;6.448;2023-07-29T14:28:18;9.73;;;2.40;;
59040;SDS011;44825;53.200;6.448;2023-07-29T14:30:44;6.00;;;1.95;;
59040;SDS011;44825;53.200;6.448;2023-07-29T14:33:10;6.35;;;1.85;;
59040;SDS011;44825;53.200;6.448;2023-07-29T14:35:36;7.85;;;1.95;;
59040;SDS011;44825;53.200;6.448;2023-07-29T14:38:02;7.00;;;3.00;;
59040;SDS011;44825;53.200;6.448;2023-07-29T14:40:28;6.85;;;1.85;;
59040;SDS011;44825;53.200;6.448;2023-07-29T14:42:54;5.55;;;1.60;;
59040;SDS011;44825;53.200;6.448;2023-07-29T14:45:20;5.63;;;1.73;;
59040;SDS011;44825;53.200;6.448;2023-07-29T14:47:46;4.40;;;1.60;;
59040;SDS011;44825;53.200;6.448;2023-07-29T14:50:12;7.38;;;1.90;;
59040;SDS011;44825;53.200;6.448;2023-07-29T14:52:39;6.05;;;1.70;;